createdAt,value
2023-03-07T00:02:08.356Z,9.63
2023-03-07T00:07:09.900Z,10.32
2023-03-07T00:12:11.497Z,9.90
2023-03-07T00:17:13.077Z,10.90
2023-03-07T00:22:14.815Z,9.77
2023-03-07T00:27:16.485Z,10.33
2023-03-07T00:32:18.134Z,9.68
2023-03-07T00:37:19.777Z,9.80
2023-03-07T00:42:21.478Z,10.30
2023-03-07T00:47:23.176Z,10.00
2023-03-07T00:52:24.804Z,9.63
2023-03-07T00:57:26.430Z,9.53
2023-03-07T01:02:28.000Z,9.80
2023-03-07T01:07:29.593Z,9.13
2023-03-07T01:12:31.301Z,10.13
2023-03-07T01:17:33.539Z,10.87
2023-03-07T01:22:35.232Z,9.63
2023-03-07T01:27:36.976Z,10.23
2023-03-07T01:32:38.836Z,9.10
2023-03-07T01:37:40.699Z,10.17
2023-03-07T01:42:43.818Z,9.50
2023-03-07T01:47:45.669Z,10.50
2023-03-07T01:52:59.485Z,10.17
2023-03-07T01:58:06.924Z,9.43
2023-03-07T02:03:20.625Z,10.37
2023-03-07T02:08:25.151Z,10.00
2023-03-07T02:13:26.910Z,10.13
2023-03-07T02:18:31.040Z,10.73
2023-03-07T02:23:45.271Z,10.43
2023-03-07T02:28:48.087Z,10.73
2023-03-07T02:33:51.011Z,9.87
2023-03-07T02:38:54.772Z,10.57
2023-03-07T02:43:58.476Z,10.17
2023-03-07T02:49:00.137Z,9.83
2023-03-07T02:54:02.386Z,10.40
2023-03-07T02:59:04.235Z,10.87
2023-03-07T03:04:06.040Z,10.75
2023-03-07T03:09:07.640Z,9.57
2023-03-07T03:14:09.317Z,9.27
2023-03-07T03:19:10.877Z,10.17
2023-03-07T03:24:12.507Z,9.47
2023-03-07T03:29:15.106Z,9.37
2023-03-07T03:34:17.141Z,9.90
2023-03-07T03:39:18.948Z,8.97
2023-03-07T03:44:25.147Z,9.68
2023-03-07T03:49:27.356Z,10.07
2023-03-07T03:54:30.889Z,9.47
2023-03-07T03:59:32.839Z,9.40
2023-03-07T04:04:35.515Z,9.27
2023-03-07T04:09:37.074Z,8.80
2023-03-07T04:14:38.775Z,8.93
2023-03-07T04:19:40.602Z,8.67
2023-03-07T04:24:42.762Z,9.23
2023-03-07T04:29:44.540Z,8.83
2023-03-07T04:34:51.019Z,8.93
2023-03-07T04:39:52.633Z,8.87
2023-03-07T04:44:54.999Z,8.43
2023-03-07T04:49:56.634Z,8.43
2023-03-07T04:54:58.543Z,8.20
2023-03-07T05:00:00.511Z,8.63
2023-03-07T05:05:03.198Z,8.77
2023-03-07T05:10:05.539Z,8.23
2023-03-07T05:15:08.263Z,8.73
2023-03-07T05:20:10.877Z,8.90
2023-03-07T05:25:13.345Z,9.27
2023-03-07T05:30:16.558Z,9.27
2023-03-07T05:35:18.857Z,8.17
2023-03-07T05:40:21.614Z,8.20
2023-03-07T05:45:24.244Z,8.77
2023-03-07T05:50:26.504Z,8.83
2023-03-07T05:55:28.212Z,8.70
2023-03-07T06:00:30.041Z,9.40
2023-03-07T06:05:34.915Z,8.90
2023-03-07T06:10:39.988Z,8.13
2023-03-07T06:15:43.582Z,7.47
2023-03-07T06:20:57.782Z,8.50
2023-03-07T06:26:01.047Z,8.23
2023-03-07T06:31:08.892Z,7.97
2023-03-07T06:36:12.731Z,7.97
2023-03-07T06:41:16.367Z,8.20
2023-03-07T06:46:18.184Z,7.33
2023-03-07T06:51:19.743Z,7.63
2023-03-07T06:56:22.063Z,7.20
2023-03-07T07:01:23.689Z,8.10
2023-03-07T07:06:27.528Z,7.67
2023-03-07T07:11:29.212Z,7.53
2023-03-07T07:16:33.646Z,7.20
2023-03-07T07:21:35.636Z,7.50
2023-03-07T07:26:38.028Z,7.77
2023-03-07T07:31:39.698Z,6.90
2023-03-07T07:36:42.038Z,7.10
2023-03-07T07:41:44.444Z,6.57
2023-03-07T07:46:46.763Z,6.97
2023-03-07T07:51:48.534Z,6.18
2023-03-07T07:56:50.207Z,5.80
2023-03-07T08:01:52.626Z,5.77
2023-03-07T08:06:54.666Z,5.20
2023-03-07T08:11:56.215Z,5.67
2023-03-07T08:16:57.795Z,5.20
2023-03-07T08:21:59.531Z,4.93
2023-03-07T08:27:01.556Z,4.83
2023-03-07T08:32:03.273Z,5.22
2023-03-07T08:37:04.950Z,5.30
2023-03-07T08:42:06.938Z,5.20
2023-03-07T08:47:08.774Z,4.90
2023-03-07T08:52:10.361Z,5.00
2023-03-07T08:57:11.918Z,5.10
2023-03-07T09:02:13.562Z,4.57
2023-03-07T09:07:15.181Z,3.97
2023-03-07T09:12:16.721Z,4.30
2023-03-07T09:17:19.044Z,3.88
2023-03-07T09:22:20.565Z,3.92
2023-03-07T09:27:22.168Z,3.78
2023-03-07T09:32:23.849Z,3.50
2023-03-07T09:37:25.527Z,3.58
2023-03-07T09:42:55.884Z,3.92
2023-03-07T09:48:04.699Z,4.15
2023-03-07T09:53:06.456Z,4.07
2023-03-07T09:58:12.669Z,4.07
2023-03-07T10:03:21.504Z,4.30
2023-03-07T10:08:33.660Z,4.30
2023-03-07T10:13:47.359Z,3.90
2023-03-07T10:19:05.597Z,4.35
2023-03-07T10:24:17.292Z,4.60
2023-03-07T10:29:19.996Z,4.65
2023-03-07T10:34:31.275Z,4.30
2023-03-07T10:39:43.561Z,5.00
2023-03-07T10:44:47.901Z,4.47
2023-03-07T10:49:52.360Z,4.65
2023-03-07T10:54:55.104Z,4.80
2023-03-07T11:00:13.572Z,4.88
2023-03-07T11:05:28.066Z,5.30
2023-03-07T11:10:40.099Z,5.20
2023-03-07T11:15:41.836Z,4.57
2023-03-07T11:20:50.388Z,4.55
2023-03-07T11:25:53.485Z,4.72
2023-03-07T11:31:16.561Z,4.60
2023-03-07T11:36:36.618Z,4.88
2023-03-07T11:41:41.220Z,5.07
2023-03-07T11:47:01.384Z,4.82
2023-03-07T11:52:33.528Z,4.82
2023-03-07T11:57:50.816Z,4.80
2023-03-07T12:03:04.325Z,4.85
2023-03-07T12:08:14.808Z,4.90
2023-03-07T12:13:21.478Z,4.75
2023-03-07T12:18:41.078Z,4.68
2023-03-07T12:23:47.450Z,5.00
2023-03-07T12:29:03.480Z,4.53
2023-03-07T12:34:11.112Z,4.75
2023-03-07T12:39:18.032Z,4.25
2023-03-07T12:44:56.562Z,4.57
2023-03-07T12:50:26.211Z,4.60
2023-03-07T12:55:46.714Z,4.82
2023-03-07T13:00:51.609Z,4.32
2023-03-07T13:05:53.310Z,4.63
2023-03-07T13:10:55.898Z,4.65
2023-03-07T13:16:06.846Z,4.90
2023-03-07T13:21:14.083Z,5.05
2023-03-07T13:26:23.169Z,5.10
2023-03-07T13:31:28.153Z,4.95
2023-03-07T13:36:39.430Z,4.95
2023-03-07T13:41:49.122Z,4.85
2023-03-07T13:46:52.435Z,4.35
2023-03-07T13:52:17.737Z,4.18
2023-03-07T13:57:20.630Z,5.40
2023-03-07T14:02:23.181Z,4.50
2023-03-07T14:07:28.156Z,5.07
2023-03-07T14:12:40.143Z,4.32
2023-03-07T14:17:54.758Z,4.95
2023-03-07T14:23:21.016Z,4.53
2023-03-07T14:28:27.499Z,4.47
2023-03-07T14:33:33.388Z,4.40
2023-03-07T14:38:34.950Z,4.10
2023-03-07T14:43:42.142Z,4.82
2023-03-07T14:49:09.718Z,4.93
2023-03-07T14:54:17.426Z,5.28
2023-03-07T14:59:28.080Z,4.53
2023-03-07T15:04:32.456Z,4.30
2023-03-07T15:09:34.367Z,4.63
2023-03-07T15:14:54.692Z,4.20
2023-03-07T15:20:07.421Z,4.13
2023-03-07T15:25:25.374Z,3.63
2023-03-07T15:30:53.215Z,3.85
2023-03-07T15:36:13.486Z,3.58
2023-03-07T15:41:34.561Z,3.47
2023-03-07T15:46:45.129Z,4.03
2023-03-07T15:51:46.776Z,3.70
2023-03-07T15:56:59.390Z,3.83
2023-03-07T16:02:31.940Z,4.22
2023-03-07T16:07:33.731Z,4.10
2023-03-07T16:12:35.443Z,3.75
2023-03-07T16:17:37.910Z,3.25
2023-03-07T16:22:39.478Z,3.83
2023-03-07T16:27:44.689Z,3.70
2023-03-07T16:32:46.393Z,3.50
2023-03-07T16:37:48.079Z,3.33
2023-03-07T16:42:53.139Z,3.65
2023-03-07T16:47:59.362Z,3.38
2023-03-07T16:53:00.990Z,3.80
2023-03-07T16:58:04.482Z,4.10
2023-03-07T17:03:06.158Z,3.65
2023-03-07T17:08:08.686Z,4.25
2023-03-07T17:13:14.848Z,4.10
2023-03-07T17:18:16.507Z,3.40
2023-03-07T17:23:22.325Z,3.72
2023-03-07T17:28:25.204Z,3.05
2023-03-07T17:33:27.913Z,3.33
2023-03-07T17:38:29.999Z,2.88
2023-03-07T17:43:33.891Z,2.30
2023-03-07T17:48:36.139Z,2.92
2023-03-07T17:53:40.131Z,2.30
2023-03-07T17:59:09.148Z,2.55
2023-03-07T18:04:11.090Z,2.47
2023-03-07T18:09:13.443Z,1.70
2023-03-07T18:14:15.062Z,1.80
2023-03-07T18:19:25.695Z,1.80
2023-03-07T18:24:29.990Z,1.90
2023-03-07T18:29:32.063Z,1.88
2023-03-07T18:34:33.639Z,2.20
2023-03-07T18:39:36.097Z,2.67
2023-03-07T18:44:41.626Z,2.50
2023-03-07T18:49:43.364Z,2.72
2023-03-07T18:54:45.068Z,2.50
2023-03-07T18:59:46.705Z,2.50
2023-03-07T19:04:48.439Z,2.30
2023-03-07T19:09:53.549Z,2.47
2023-03-07T19:14:55.416Z,2.40
2023-03-07T19:19:59.325Z,2.60
2023-03-07T19:25:01.034Z,2.60
2023-03-07T19:30:02.770Z,2.95
2023-03-07T19:35:04.815Z,2.35
2023-03-07T19:40:07.246Z,2.55
2023-03-07T19:45:09.390Z,2.83
2023-03-07T19:50:11.655Z,2.78
2023-03-07T19:55:13.410Z,3.35
2023-03-07T20:00:15.484Z,3.00
2023-03-07T20:05:17.289Z,3.10
2023-03-07T20:10:19.180Z,3.00
2023-03-07T20:15:20.911Z,2.92
2023-03-07T20:20:22.550Z,2.95
2023-03-07T20:25:24.334Z,3.00
2023-03-07T20:30:25.929Z,2.90
2023-03-07T20:35:27.498Z,2.43
2023-03-07T20:40:29.050Z,2.57
2023-03-07T20:45:30.602Z,2.20
2023-03-07T20:50:32.162Z,2.58
2023-03-07T20:55:33.818Z,2.70
2023-03-07T21:00:35.406Z,2.53
2023-03-07T21:05:37.012Z,2.75
2023-03-07T21:10:38.633Z,3.05
2023-03-07T21:15:42.831Z,3.20
2023-03-07T21:20:44.388Z,2.80
2023-03-07T21:25:46.631Z,2.87
2023-03-07T21:30:49.646Z,2.70
2023-03-07T21:35:51.384Z,2.90
2023-03-07T21:40:56.501Z,2.63
2023-03-07T21:45:59.163Z,2.70
2023-03-07T21:51:01.047Z,2.50
2023-03-07T21:56:07.783Z,2.83
2023-03-07T22:01:14.613Z,2.57
2023-03-07T22:06:16.911Z,3.23
2023-03-07T22:11:18.755Z,2.93
2023-03-07T22:16:20.787Z,3.40
2023-03-07T22:21:25.960Z,3.20
2023-03-07T22:26:29.848Z,3.40
2023-03-07T22:31:31.499Z,3.37
2023-03-07T22:36:33.089Z,3.38
2023-03-07T22:41:34.736Z,3.60
2023-03-07T22:46:36.309Z,3.83
2023-03-07T22:51:38.075Z,4.07
2023-03-07T22:56:39.643Z,4.30
2023-03-07T23:01:41.455Z,4.63
2023-03-07T23:06:43.141Z,4.90
2023-03-07T23:11:46.350Z,5.47
2023-03-07T23:16:48.036Z,5.00
2023-03-07T23:21:49.739Z,5.50
2023-03-07T23:26:51.435Z,3.43
2023-03-07T23:31:53.072Z,3.00
2023-03-07T23:36:54.640Z,2.10
2023-03-07T23:41:56.221Z,2.00
2023-03-07T23:46:57.761Z,2.10
2023-03-07T23:51:59.337Z,2.13
2023-03-07T23:57:00.935Z,2.40
